Time;durP1;ratioP1;P1;durP2;ratioP2;P2;SDS_P1;SDS_P2;PMS_P1;PMS_P2;Temp;Humidity;BMP_temperature;BMP_pressure;BME280_temperature;BME280_humidity;BME280_pressure;Samples;Min_cycle;Max_cycle;Signal;HPM_P1;HPM_P2
2022/11/24 00:01:42;;;;;;;1999.90;999.90;;;;;;;7.03;100.00;93839.09;4980251;28;20186;-64
2022/11/24 00:04:10;;;;;;;1999.90;999.90;;;;;;;7.02;100.00;93867.44;4980070;28;20203;-64
2022/11/24 00:06:36;;;;;;;1999.90;999.90;;;;;;;7.08;100.00;93892.91;4980127;28;20212;-63
2022/11/24 00:09:03;;;;;;;1999.90;999.90;;;;;;;7.04;100.00;93907.72;4979611;28;20175;-60
2022/11/24 00:11:30;;;;;;;1999.90;999.90;;;;;;;7.01;100.00;93928.31;4979978;28;20229;-61
2022/11/24 00:13:57;;;;;;;1999.90;999.90;;;;;;;7.05;100.00;93953.44;4979656;28;20642;-61
2022/11/24 00:16:25;;;;;;;1999.90;999.90;;;;;;;7.08;100.00;93974.31;4979249;28;20273;-60
2022/11/24 00:18:52;;;;;;;1999.90;999.90;;;;;;;7.04;100.00;93984.47;4996810;28;20228;-60
2022/11/24 00:21:19;;;;;;;1999.90;999.90;;;;;;;7.05;100.00;93994.16;4979356;28;20219;-61
2022/11/24 00:23:45;;;;;;;1999.90;999.90;;;;;;;7.08;100.00;94006.88;4979397;28;20174;-67
2022/11/24 00:26:13;;;;;;;1999.90;999.90;;;;;;;7.04;100.00;94019.75;4979253;28;20218;-65
2022/11/24 00:28:39;;;;;;;1999.90;999.90;;;;;;;7.03;100.00;94036.44;4980031;28;20173;-66
2022/11/24 00:31:19;;;;;;;1999.90;999.90;;;;;;;7.03;100.00;94037.19;4979153;28;20174;-66
2022/11/24 00:33:46;;;;;;;1999.90;999.90;;;;;;;6.97;100.00;94052.44;4979713;28;20248;-67
2022/11/24 00:36:11;;;;;;;1999.90;999.90;;;;;;;6.94;100.00;94069.53;4979462;28;20178;-66
2022/11/24 00:38:37;;;;;;;1999.90;999.90;;;;;;;6.89;100.00;94070.03;4979095;28;20291;-66
2022/11/24 00:41:02;;;;;;;1999.90;999.90;;;;;;;6.90;100.00;94071.53;4979416;28;20178;-63
2022/11/24 00:43:27;;;;;;;1999.90;999.90;;;;;;;6.96;100.00;94086.19;4979492;28;20185;-66
2022/11/24 00:45:53;;;;;;;1999.90;999.90;;;;;;;6.95;100.00;94090.06;4979360;28;20206;-62
2022/11/24 00:48:18;;;;;;;1999.90;999.90;;;;;;;6.94;100.00;94093.97;4978935;28;20179;-62
2022/11/24 00:50:43;;;;;;;1999.90;999.90;;;;;;;6.95;100.00;94100.91;4978643;28;20178;-62
2022/11/24 00:53:09;;;;;;;1999.90;999.90;;;;;;;6.98;100.00;94100.09;4979340;28;20221;-62
2022/11/24 00:55:34;;;;;;;1999.90;999.90;;;;;;;7.02;100.00;94111.66;4978617;28;20299;-62
2022/11/24 00:57:59;;;;;;;1999.90;999.90;;;;;;;7.04;100.00;94112.03;4978660;28;20173;-63
2022/11/24 01:00:25;;;;;;;1999.90;999.90;;;;;;;7.00;100.00;94124.88;4979039;28;20179;-66
2022/11/24 01:02:51;;;;;;;1999.90;999.90;;;;;;;6.96;100.00;94145.09;4979266;28;20180;-63
2022/11/24 01:05:16;;;;;;;1999.90;999.90;;;;;;;6.93;100.00;94141.28;4978348;28;20218;-65
2022/11/24 01:07:41;;;;;;;1999.90;999.90;;;;;;;6.96;100.00;94162.16;4978719;28;20185;-65
2022/11/24 01:10:07;;;;;;;1999.90;999.90;;;;;;;6.95;100.00;94155.19;4978368;28;20179;-66
2022/11/24 01:12:34;;;;;;;1999.90;999.90;;;;;;;6.97;100.00;94160.19;4978571;28;20183;-65
2022/11/24 01:14:59;;;;;;;1999.90;999.90;;;;;;;6.99;100.00;94158.59;4978287;28;20179;-64
2022/11/24 01:17:25;;;;;;;1999.90;999.90;;;;;;;7.01;100.00;94177.97;4978515;28;20178;-64
2022/11/24 01:19:51;;;;;;;1999.90;999.90;;;;;;;6.99;100.00;94185.75;4978891;28;20202;-65
2022/11/24 01:22:16;;;;;;;1999.90;999.90;;;;;;;6.95;100.00;94187.75;4978210;28;20178;-63
2022/11/24 01:24:42;;;;;;;1999.90;999.90;;;;;;;6.89;100.00;94206.44;4978005;28;20177;-67
2022/11/24 01:27:07;;;;;;;1999.90;999.90;;;;;;;6.87;100.00;94213.44;4977639;28;20213;-63
2022/11/24 01:29:32;;;;;;;1999.90;999.90;;;;;;;6.81;100.00;94210.41;4978180;28;20178;-63
2022/11/24 01:31:58;;;;;;;1999.90;999.90;;;;;;;6.78;100.00;94215.91;4977974;28;20176;-63
2022/11/24 01:34:23;;;;;;;1999.90;999.90;;;;;;;6.75;100.00;94216.72;4978192;28;20181;-63
2022/11/24 01:36:49;;;;;;;1999.90;999.90;;;;;;;6.75;100.00;94216.72;4978069;28;20274;-63
2022/11/24 01:39:14;;;;;;;1999.90;999.90;;;;;;;6.77;100.00;94214.34;4978258;28;20186;-63
2022/11/24 01:41:39;;;;;;;1999.90;999.90;;;;;;;6.73;100.00;94208.19;4977738;28;20245;-64
2022/11/24 01:44:25;;;;;;;1999.90;999.90;;;;;;;6.67;100.00;94207.88;4978316;28;20174;-64
2022/11/24 01:46:57;;;;;;;1999.90;999.90;;;;;;;6.69;100.00;94207.47;4977995;28;20290;-63
2022/11/24 01:49:32;;;;;;;1999.90;999.90;;;;;;;6.68;100.00;94205.94;4977978;28;20171;-63
2022/11/24 01:52:03;;;;;;;1999.90;999.90;;;;;;;6.68;100.00;94205.94;4977879;28;20173;-64
2022/11/24 01:54:32;;;;;;;1999.90;999.90;;;;;;;6.71;100.00;94210.56;4977597;28;20189;-64
2022/11/24 01:57:12;;;;;;;1999.90;999.90;;;;;;;6.73;100.00;94208.97;4977860;28;20178;-67
2022/11/24 01:59:38;;;;;;;1999.90;999.90;;;;;;;6.74;100.00;94221.38;4978528;28;20180;-64
2022/11/24 02:02:03;;;;;;;1999.90;999.90;;;;;;;6.71;100.00;94221.41;4977577;28;20364;-64
2022/11/24 02:04:31;;;;;;;1999.90;999.90;;;;;;;6.75;100.00;94222.13;4977389;28;20196;-63
2022/11/24 02:07:00;;;;;;;1999.90;999.90;;;;;;;6.74;100.00;94231.47;4977691;28;20244;-65
2022/11/24 02:09:32;;;;;;;1999.90;999.90;;;;;;;6.70;100.00;94236.13;4978345;28;20178;-63
2022/11/24 02:12:00;;;;;;;1999.90;999.90;;;;;;;6.69;100.00;94250.88;4978444;28;20258;-64
2022/11/24 02:14:26;;;;;;;1999.90;999.90;;;;;;;6.71;100.00;94264.81;4978312;28;20247;-65
2022/11/24 02:16:52;;;;;;;1999.90;999.90;;;;;;;6.73;100.00;94267.88;4977960;28;20262;-66
2022/11/24 02:19:40;;;;;;;1999.90;999.90;;;;;;;6.73;100.00;94267.88;4977637;28;20262;-67
2022/11/24 02:22:20;;;;;;;1999.90;999.90;;;;;;;6.70;100.00;94265.97;4968377;28;20183;-67
2022/11/24 02:24:54;;;;;;;1999.90;999.90;;;;;;;6.68;100.00;94266.41;4978074;28;20177;-66
2022/11/24 02:27:19;;;;;;;1999.90;999.90;;;;;;;6.69;100.00;94272.59;4978326;28;20241;-66
2022/11/24 02:29:45;;;;;;;1999.90;999.90;;;;;;;6.66;100.00;94278.81;4978127;28;20186;-66
2022/11/24 02:32:11;;;;;;;1999.90;999.90;;;;;;;6.68;100.00;94284.63;4977716;28;20229;-62
2022/11/24 02:34:36;;;;;;;1999.90;999.90;;;;;;;6.63;100.00;94290.50;4977343;28;20598;-62
2022/11/24 02:37:01;;;;;;;1999.90;999.90;;;;;;;6.62;100.00;94288.94;4977612;28;20188;-67
2022/11/24 02:39:27;;;;;;;1999.90;999.90;;;;;;;6.60;100.00;94286.63;4980715;28;20178;-68
2022/11/24 02:42:02;;;;;;;1999.90;999.90;;;;;;;6.63;100.00;94298.63;4981758;28;20198;-67
2022/11/24 02:44:33;;;;;;;1999.90;999.90;;;;;;;6.65;100.00;94290.84;4981395;28;20181;-67
2022/11/24 02:47:10;;;;;;;1999.90;999.90;;;;;;;6.69;100.00;94295.06;4981516;28;20199;-68
2022/11/24 02:49:36;;;;;;;1999.90;999.90;;;;;;;6.71;100.00;94302.78;4981701;28;20169;-67
2022/11/24 02:52:01;;;;;;;1999.90;999.90;;;;;;;6.75;100.00;94303.53;4981669;28;20262;-67
2022/11/24 02:54:27;;;;;;;1999.90;999.90;;;;;;;6.75;100.00;94303.53;4981183;28;20178;-62
2022/11/24 02:56:53;;;;;;;1999.90;999.90;;;;;;;6.74;100.00;94313.59;4980776;28;20217;-62
2022/11/24 02:59:18;;;;;;;1999.90;999.90;;;;;;;6.76;100.00;94321.31;4980565;28;20190;-62
2022/11/24 03:01:43;;;;;;;1999.90;999.90;;;;;;;6.75;100.00;94315.13;4980892;28;20182;-62
2022/11/24 03:04:09;;;;;;;1999.90;999.90;;;;;;;6.75;100.00;94314.38;4980685;28;20361;-62
2022/11/24 03:06:34;;;;;;;1999.90;999.90;;;;;;;6.74;100.00;94323.69;4980682;28;20210;-62
2022/11/24 03:08:59;;;;;;;1999.90;999.90;;;;;;;6.77;100.00;94320.16;4980767;28;20202;-66
2022/11/24 03:11:25;;;;;;;1999.90;999.90;;;;;;;6.74;100.00;94329.88;4981268;28;20189;-69
2022/11/24 03:13:50;;;;;;;1999.90;999.90;;;;;;;6.77;100.00;94328.28;4997833;28;20183;-64
2022/11/24 03:16:16;;;;;;;1999.90;999.90;;;;;;;6.77;100.00;94322.84;4997553;28;20173;-64
2022/11/24 03:18:41;;;;;;;1999.90;999.90;;;;;;;6.78;100.00;94330.59;4981118;28;20186;-64
2022/11/24 03:21:06;;;;;;;1999.90;999.90;;;;;;;6.78;100.00;94324.41;4980866;28;20178;-64
2022/11/24 03:23:31;;;;;;;1999.90;999.90;;;;;;;6.77;100.00;94336.41;4980957;28;20176;-65
2022/11/24 03:26:13;;;;;;;1999.90;999.90;;;;;;;6.76;100.00;94324.81;4980272;28;20206;-66
2022/11/24 03:28:39;;;;;;;1999.90;999.90;;;;;;;6.78;100.00;94335.28;4980400;28;20177;-66
2022/11/24 03:31:06;;;;;;;1999.90;999.90;;;;;;;6.77;100.00;94341.84;4980637;28;20287;-65
2022/11/24 03:33:31;;;;;;;1999.90;999.90;;;;;;;6.75;100.00;94336.06;4980187;28;20178;-65
2022/11/24 03:35:57;;;;;;;1999.90;999.90;;;;;;;6.77;100.00;94345.34;4980313;28;20272;-66
2022/11/24 03:38:22;;;;;;;1999.90;999.90;;;;;;;6.79;100.00;94336.81;4980133;28;20265;-65
2022/11/24 03:40:47;;;;;;;1999.90;999.90;;;;;;;6.79;100.00;94331.38;4980238;28;20217;-66
2022/11/24 03:43:13;;;;;;;1999.90;999.90;;;;;;;6.79;100.00;94332.16;4980180;28;20200;-67
2022/11/24 03:45:39;;;;;;;1999.90;999.90;;;;;;;6.77;100.00;94339.91;4980670;28;20202;-63
2022/11/24 03:48:05;;;;;;;1999.90;999.90;;;;;;;6.82;100.00;94336.00;4980014;28;20187;-62
2022/11/24 03:50:30;;;;;;;1999.90;999.90;;;;;;;6.81;100.00;94329.00;4979809;28;20209;-65
2022/11/24 03:52:56;;;;;;;1999.90;999.90;;;;;;;6.75;100.00;94338.78;4979997;28;20213;-65
2022/11/24 03:55:21;;;;;;;1999.90;999.90;;;;;;;6.80;100.00;94341.03;4979584;28;20236;-65
2022/11/24 03:57:46;;;;;;;1999.90;999.90;;;;;;;6.85;100.00;94338.66;4979683;28;20183;-65
2022/11/24 04:00:12;;;;;;;1999.90;999.90;;;;;;;6.86;100.00;94342.16;4979822;28;20178;-66
2022/11/24 04:02:38;;;;;;;1999.90;999.90;;;;;;;6.86;100.00;94353.00;4979751;28;20265;-66
2022/11/24 04:05:04;;;;;;;1999.90;999.90;;;;;;;6.82;100.00;94346.84;4979811;28;20297;-62
2022/11/24 04:07:29;;;;;;;1999.90;999.90;;;;;;;6.85;100.00;94351.47;4979518;28;20194;-67
2022/11/24 04:09:55;;;;;;;1999.90;999.90;;;;;;;6.83;100.00;94354.59;4980334;28;20195;-67
2022/11/24 04:15:04;;;;;;;1999.90;999.90;;;;;;;6.82;100.00;94349.56;4997160;28;20178;-67
2022/11/24 04:17:30;;;;;;;1999.90;999.90;;;;;;;6.78;100.00;94348.84;4979178;28;20185;-67
2022/11/24 04:19:55;;;;;;;1999.90;999.90;;;;;;;6.78;100.00;94354.25;4979260;28;20181;-66
2022/11/24 04:22:20;;;;;;;1999.90;999.90;;;;;;;6.72;100.00;94358.56;4979377;28;20222;-65
2022/11/24 04:24:46;;;;;;;1999.90;999.90;;;;;;;6.71;100.00;94357.03;4979281;28;20273;-66
2022/11/24 04:27:11;;;;;;;1999.90;999.90;;;;;;;6.68;100.00;94353.19;4979160;28;20204;-66
2022/11/24 04:29:36;;;;;;;1999.90;999.90;;;;;;;6.67;100.00;94362.50;4979276;28;20182;-66
2022/11/24 04:32:02;;;;;;;1999.90;999.90;;;;;;;6.61;100.00;94363.34;4978871;28;20184;-66
2022/11/24 04:34:27;;;;;;;1999.90;999.90;;;;;;;6.60;100.00;94361.81;4979103;28;20191;-66
2022/11/24 04:36:52;;;;;;;1999.90;999.90;;;;;;;6.62;100.00;94359.44;4979896;28;20175;-66
2022/11/24 04:39:18;;;;;;;1999.90;999.90;;;;;;;6.64;100.00;94357.13;4978876;28;20268;-66
2022/11/24 04:41:45;;;;;;;1999.90;999.90;;;;;;;6.65;100.00;94355.94;4978801;28;20288;-66
2022/11/24 04:44:10;;;;;;;1999.90;999.90;;;;;;;6.70;100.00;94355.47;4979275;28;20190;-65
2022/11/24 04:46:36;;;;;;;1999.90;999.90;;;;;;;6.73;100.00;94357.41;4978746;28;20206;-65
2022/11/24 04:49:01;;;;;;;1999.90;999.90;;;;;;;6.75;100.00;94355.81;4978674;28;20183;-65
2022/11/24 04:51:26;;;;;;;1999.90;999.90;;;;;;;6.78;100.00;94362.41;4979304;28;20175;-65
2022/11/24 04:53:52;;;;;;;1999.90;999.90;;;;;;;6.83;100.00;94372.78;4978832;28;20175;-65
2022/11/24 04:56:17;;;;;;;1999.90;999.90;;;;;;;6.82;100.00;94374.72;4978310;28;20230;-65
2022/11/24 04:58:42;;;;;;;1999.90;999.90;;;;;;;6.85;100.00;94387.50;4979116;28;20181;-64
2022/11/24 05:01:08;;;;;;;1999.90;999.90;;;;;;;6.84;100.00;94380.53;4978105;28;20179;-67
2022/11/24 05:03:35;;;;;;;1999.90;999.90;;;;;;;6.89;100.00;94395.63;4978306;28;20178;-64
2022/11/24 05:06:01;;;;;;;1999.90;999.90;;;;;;;6.90;100.00;94391.72;4978453;28;20208;-65
2022/11/24 05:08:26;;;;;;;1999.90;999.90;;;;;;;6.92;100.00;94408.34;4978579;28;20177;-64
2022/11/24 05:10:52;;;;;;;1999.90;999.90;;;;;;;6.91;100.00;94414.97;4978858;28;20182;-65
2022/11/24 05:13:17;;;;;;;1999.90;999.90;;;;;;;6.92;100.00;94421.91;4978368;28;20202;-65
2022/11/24 05:15:42;;;;;;;1999.90;999.90;;;;;;;6.93;100.00;94423.47;4978754;28;20182;-65
2022/11/24 05:18:11;;;;;;;1999.90;999.90;;;;;;;6.93;100.00;94428.91;4978418;28;20181;-67
2022/11/24 05:20:36;;;;;;;1999.90;999.90;;;;;;;7.01;100.00;94440.44;4978392;28;20175;-64
2022/11/24 05:23:06;;;;;;;1999.90;999.90;;;;;;;7.03;100.00;94449.72;4978006;28;20176;-65
2022/11/24 05:25:33;;;;;;;1999.90;999.90;;;;;;;7.02;100.00;94448.19;4978666;28;20208;-65
2022/11/24 05:28:00;;;;;;;1999.90;999.90;;;;;;;7.06;100.00;94461.72;4978392;28;20225;-65
2022/11/24 05:30:26;;;;;;;1999.90;999.90;;;;;;;7.11;100.00;94455.84;4978095;28;20265;-64
2022/11/24 05:32:51;;;;;;;1999.90;999.90;;;;;;;7.06;100.00;94467.91;4978668;28;20216;-64
2022/11/24 05:35:17;;;;;;;1999.90;999.90;;;;;;;7.11;100.00;94472.91;4978197;28;20267;-65
2022/11/24 05:37:43;;;;;;;1999.90;999.90;;;;;;;7.13;100.00;94488.81;4978045;28;20200;-66
2022/11/24 05:40:09;;;;;;;1999.90;999.90;;;;;;;7.15;100.00;94484.50;4978251;28;20175;-65
2022/11/24 05:42:40;;;;;;;1999.90;999.90;;;;;;;7.17;100.00;94492.25;4977802;28;20186;-64
2022/11/24 05:45:16;;;;;;;1999.90;999.90;;;;;;;7.16;100.00;94502.34;4978428;28;20245;-64
2022/11/24 05:47:41;;;;;;;1999.90;999.90;;;;;;;7.18;100.00;94502.72;4978645;28;20174;-65
2022/11/24 05:50:09;;;;;;;1999.90;999.90;;;;;;;7.19;100.00;94504.25;4977810;28;20181;-64
2022/11/24 05:52:35;;;;;;;1999.90;999.90;;;;;;;7.18;100.00;94513.56;4978031;28;20180;-65
2022/11/24 05:55:00;;;;;;;1999.90;999.90;;;;;;;7.18;100.00;94516.28;4975024;28;20273;-66
2022/11/24 05:57:26;;;;;;;1999.90;999.90;;;;;;;7.24;100.00;94514.66;4975482;28;20195;-67
2022/11/24 05:59:51;;;;;;;1999.90;999.90;;;;;;;7.24;100.00;94525.53;4974758;28;20175;-68
2022/11/24 06:02:16;;;;;;;1999.90;999.90;;;;;;;7.25;100.00;94532.47;4974675;28;20179;-67
2022/11/24 06:04:42;;;;;;;1999.90;999.90;;;;;;;7.32;100.00;94546.00;4974572;28;20202;-68
2022/11/24 06:07:10;;;;;;;1999.90;999.90;;;;;;;7.38;100.00;94568.84;4974437;28;20207;-68
2022/11/24 06:09:37;;;;;;;1999.90;999.90;;;;;;;7.37;100.00;94570.00;4974620;28;20203;-68
2022/11/24 06:12:05;;;;;;;1999.90;999.90;;;;;;;7.35;100.00;94585.94;4974892;28;20206;-68
2022/11/24 06:14:30;;;;;;;1999.90;999.90;;;;;;;7.34;100.00;94595.25;4977902;28;20185;-61
2022/11/24 06:16:55;;;;;;;1999.90;999.90;;;;;;;7.37;100.00;94604.53;4978896;28;20177;-67
2022/11/24 06:19:21;;;;;;;1999.90;999.90;;;;;;;7.34;100.00;94606.13;4978493;28;20206;-66
2022/11/24 06:21:46;;;;;;;1999.90;999.90;;;;;;;7.37;100.00;94616.19;4977733;28;20182;-65
2022/11/24 06:24:11;;;;;;;1999.90;999.90;;;;;;;7.39;100.00;94621.97;4977963;28;20185;-67
2022/11/24 06:26:37;;;;;;;1999.90;999.90;;;;;;;7.41;100.00;94610.72;4978015;28;20207;-65
2022/11/24 06:29:02;;;;;;;1999.90;999.90;;;;;;;7.40;100.00;94620.81;4977706;28;20277;-67
2022/11/24 06:31:27;;;;;;;1999.90;999.90;;;;;;;7.43;100.00;94621.94;4977878;28;20273;-65
2022/11/24 06:33:53;;;;;;;1999.90;999.90;;;;;;;7.41;100.00;94632.44;4977966;28;20268;-67
2022/11/24 06:36:19;;;;;;;1999.90;999.90;;;;;;;7.43;100.00;94625.41;4977753;28;20187;-63
2022/11/24 06:38:44;;;;;;;1999.90;999.90;;;;;;;7.41;100.00;94635.94;4977958;28;20179;-65
2022/11/24 06:41:14;;;;;;;1999.90;999.90;;;;;;;7.45;100.00;94644.81;4977950;28;20175;-65
2022/11/24 06:43:40;;;;;;;1999.90;999.90;;;;;;;7.43;100.00;94649.13;4977887;28;20272;-65
2022/11/24 06:46:06;;;;;;;1999.90;999.90;;;;;;;7.45;100.00;94654.91;4977673;28;20270;-66
2022/11/24 06:48:31;;;;;;;1999.90;999.90;;;;;;;7.47;100.00;94658.75;4978327;28;20175;-65
2022/11/24 06:51:01;;;;;;;1999.90;999.90;;;;;;;7.49;100.00;94661.84;4978004;28;20179;-65
2022/11/24 06:53:37;;;;;;;1999.90;999.90;;;;;;;7.49;100.00;94667.28;4977766;28;20180;-67
2022/11/24 06:56:08;;;;;;;1999.90;999.90;;;;;;;7.49;100.00;94675.44;4977524;28;20234;-67
2022/11/24 06:58:34;;;;;;;1999.90;999.90;;;;;;;7.46;100.00;94684.38;4977677;28;20186;-67
2022/11/24 07:00:59;;;;;;;1999.90;999.90;;;;;;;7.47;100.00;94680.47;4977426;28;20171;-67
2022/11/24 07:03:25;;;;;;;1999.90;999.90;;;;;;;7.49;100.00;94683.59;4977452;28;20183;-67
2022/11/24 07:05:57;;;;;;;1999.90;999.90;;;;;;;7.51;100.00;94694.84;4977529;28;20300;-67
2022/11/24 07:08:23;;;;;;;1999.90;999.90;;;;;;;7.55;100.00;94695.56;4977224;28;20186;-61
2022/11/24 07:10:49;;;;;;;1999.90;999.90;;;;;;;7.54;100.00;94704.88;4977739;28;20514;-64
2022/11/24 07:13:14;;;;;;;1999.90;999.90;;;;;;;7.56;100.00;94713.41;4977053;28;20182;-61
2022/11/24 07:15:39;;;;;;;1999.90;999.90;;;;;;;7.58;100.00;94719.19;4976803;28;20232;-61
2022/11/24 07:18:05;;;;;;;1999.90;999.90;;;;;;;7.59;100.00;94725.41;4976760;28;20179;-61
2022/11/24 07:20:30;;;;;;;1999.90;999.90;;;;;;;7.59;100.00;94739.78;4977013;28;20274;-61
2022/11/24 07:22:56;;;;;;;1999.90;999.90;;;;;;;7.70;100.00;94743.19;4977213;28;20243;-62
2022/11/24 07:25:23;;;;;;;1999.90;999.90;;;;;;;7.71;100.00;94750.16;4976084;28;20184;-62
2022/11/24 07:27:48;;;;;;;1999.90;999.90;;;;;;;7.77;100.00;94762.16;4977131;28;20183;-64
2022/11/24 07:30:13;;;;;;;1999.90;999.90;;;;;;;7.80;100.00;94769.50;4976963;28;20251;-67
2022/11/24 07:32:39;;;;;;;1999.90;999.90;;;;;;;7.76;100.00;94784.28;4976814;28;20179;-67
2022/11/24 07:35:05;;;;;;;1999.90;999.90;;;;;;;7.80;100.00;94791.25;4976772;28;20184;-67
2022/11/24 07:37:30;;;;;;;1999.90;999.90;;;;;;;8.34;100.00;94793.13;4977292;28;20219;-66
2022/11/24 07:39:56;;;;;;;1999.90;999.90;;;;;;;9.34;100.00;94811.44;4976740;28;20215;-66
2022/11/24 07:42:21;;;;;;;1999.90;999.90;;;;;;;10.25;100.00;94849.50;4976841;28;20183;-66
2022/11/24 07:44:47;;;;;;;1999.90;999.90;;;;;;;10.94;100.00;94913.09;4976671;28;20176;-65
2022/11/24 07:47:12;;;;;;;1999.90;999.90;;;;;;;11.49;100.00;94945.25;4976779;28;20204;-66
2022/11/24 07:49:37;;;;;;;1999.90;999.90;;;;;;;12.13;100.00;94978.41;4976685;28;20177;-64
2022/11/24 07:52:03;;;;;;;1999.90;999.90;;;;;;;12.60;100.00;94985.16;4976893;28;20166;-65
2022/11/24 07:54:29;;;;;;;1999.90;999.90;;;;;;;12.89;100.00;94991.53;4979450;28;20181;-65
2022/11/24 07:56:55;;;;;;;1999.90;999.90;;;;;;;12.80;100.00;95005.06;4980424;28;20171;-65
2022/11/24 07:59:20;;;;;;;1999.90;999.90;;;;;;;13.21;100.00;95002.53;4979596;28;20237;-64
2022/11/24 08:01:46;;;;;;;1999.90;999.90;;;;;;;13.48;100.00;95000.31;4980247;28;20626;-65
2022/11/24 08:04:11;;;;;;;1999.90;999.90;;;;;;;13.53;100.00;95005.25;4979277;28;20192;-67
2022/11/24 08:06:37;;;;;;;1999.90;999.90;;;;;;;13.94;100.00;94999.84;4979502;28;20264;-61
2022/11/24 08:09:02;;;;;;;1999.90;999.90;;;;;;;13.71;100.00;95002.81;4979583;28;20184;-62
2022/11/24 08:11:30;;;;;;;1999.90;999.90;;;;;;;14.05;100.00;94996.78;4979520;28;20230;-62
2022/11/24 08:13:55;;;;;;;1999.90;999.90;;;;;;;14.21;100.00;95008.50;4979565;28;20180;-62
2022/11/24 08:16:21;;;;;;;1999.90;999.90;;;;;;;14.61;100.00;95001.44;4979261;28;20186;-59
2022/11/24 08:18:51;;;;;;;1999.90;999.90;;;;;;;14.83;100.00;95002.31;4979368;28;20181;-59
2022/11/24 08:21:17;;;;;;;1999.90;999.90;;;;;;;14.40;100.00;94996.59;4979305;28;20180;-59
2022/11/24 08:23:43;;;;;;;1999.90;999.90;;;;;;;14.24;100.00;95006.88;4979295;28;20177;-63
2022/11/24 08:26:14;;;;;;;1999.90;999.90;;;;;;;14.83;100.00;95007.06;4979433;28;20283;-62
2022/11/24 08:28:40;;;;;;;1999.90;999.90;;;;;;;15.41;100.00;94995.38;4979811;28;20176;-61
2022/11/24 08:31:08;;;;;;;1999.90;999.90;;;;;;;15.34;100.00;95001.06;4996279;28;20183;-61
2022/11/24 08:33:34;;;;;;;1999.90;999.90;;;;;;;15.19;100.00;95000.00;4979031;28;20176;-61
2022/11/24 08:36:11;;;;;;;1999.90;999.90;;;;;;;15.17;100.00;95005.19;4979062;28;20267;-61
2022/11/24 08:38:37;;;;;;;1999.90;999.90;;;;;;;15.22;100.00;95003.84;4979706;28;20175;-63
2022/11/24 08:41:08;;;;;;;1999.90;999.90;;;;;;;14.78;100.00;95018.59;4979411;28;20182;-66
2022/11/24 08:43:34;;;;;;;1999.90;999.90;;;;;;;13.96;100.00;95013.91;4978963;28;20282;-65
2022/11/24 08:46:01;;;;;;;1999.90;999.90;;;;;;;13.94;100.00;95024.53;4978851;28;20589;-66
2022/11/24 08:48:27;;;;;;;1999.90;999.90;;;;;;;13.36;100.00;95022.94;4978796;28;20188;-66
2022/11/24 08:50:52;;;;;;;1999.90;999.90;;;;;;;12.29;100.00;95025.75;4995765;28;20206;-66
2022/11/24 08:53:18;;;;;;;1999.90;999.90;;;;;;;11.76;100.00;95025.28;4978112;28;20219;-66
2022/11/24 08:55:43;;;;;;;1999.90;999.90;;;;;;;11.79;100.00;95024.41;4978816;28;20231;-67
2022/11/24 08:58:08;;;;;;;1999.90;999.90;;;;;;;11.62;100.00;95023.53;4978541;28;20172;-66
2022/11/24 09:00:34;;;;;;;1999.90;999.90;;;;;;;11.84;100.00;95023.94;4978462;28;20190;-68
2022/11/24 09:02:59;;;;;;;1999.90;999.90;;;;;;;12.02;100.00;95024.38;4978503;28;20179;-63
2022/11/24 09:05:24;;;;;;;1999.90;999.90;;;;;;;12.99;100.00;95007.00;4978257;28;20192;-63
2022/11/24 09:07:50;;;;;;;1999.90;999.90;;;;;;;13.29;100.00;95020.34;4979161;28;20178;-63
2022/11/24 09:10:15;;;;;;;1999.90;999.90;;;;;;;12.66;100.00;95019.88;4978884;28;20180;-63
2022/11/24 09:12:43;;;;;;;1999.90;999.90;;;;;;;12.37;100.00;95020.91;4979006;28;20179;-63
2022/11/24 09:15:09;;;;;;;1999.90;999.90;;;;;;;11.80;100.00;95020.50;4977973;28;20180;-63
2022/11/24 09:17:35;;;;;;;1999.90;999.90;;;;;;;11.15;100.00;95024.72;4978189;28;20186;-66
2022/11/24 09:20:00;;;;;;;1999.90;999.90;;;;;;;11.08;100.00;95021.34;4978491;28;20178;-62
2022/11/24 09:22:26;;;;;;;1999.90;999.90;;;;;;;10.83;100.00;95023.69;4978019;28;20179;-62
2022/11/24 09:24:51;;;;;;;1999.90;999.90;;;;;;;10.60;100.00;95018.19;4978984;28;20212;-62
2022/11/24 09:27:16;;;;;;;1999.90;999.90;;;;;;;10.59;100.00;95019.41;4977749;28;20613;-62
2022/11/24 09:29:42;;;;;;;1999.90;999.90;;;;;;;10.74;100.00;95021.47;4978153;28;20210;-61
2022/11/24 09:32:07;;;;;;;1999.90;999.90;;;;;;;11.50;100.00;95028.81;4978341;28;20175;-62
2022/11/24 09:34:32;;;;;;;1999.90;999.90;;;;;;;11.80;100.00;95031.44;4978047;28;20181;-62
2022/11/24 09:36:58;;;;;;;1999.90;999.90;;;;;;;11.81;100.00;95038.47;4977660;28;20178;-64
2022/11/24 09:39:23;;;;;;;1999.90;999.90;;;;;;;11.40;100.00;95029.81;4978042;28;20178;-62
2022/11/24 09:42:13;;;;;;;1999.90;999.90;;;;;;;11.27;100.00;95032.34;4978206;28;20177;-61
2022/11/24 09:44:59;;;;;;;1999.90;999.90;;;;;;;11.42;100.00;95021.94;4978527;28;20193;-61
2022/11/24 09:47:50;;;;;;;1999.90;999.90;;;;;;;11.25;100.00;95034.72;4977491;28;20203;-62
2022/11/24 09:50:23;;;;;;;1999.90;999.90;;;;;;;11.05;100.00;95038.56;4978458;28;20650;-61
2022/11/24 09:53:11;;;;;;;1999.90;999.90;;;;;;;10.90;100.00;95029.06;4977875;28;20188;-61
2022/11/24 09:55:44;;;;;;;1999.90;999.90;;;;;;;10.87;100.00;95025.19;4968597;28;20229;-61
2022/11/24 09:58:49;;;;;;;1999.90;999.90;;;;;;;10.85;100.00;95027.56;4978163;28;20166;-61
2022/11/24 10:01:36;;;;;;;1999.90;999.90;;;;;;;10.88;100.00;95025.94;4978072;28;20184;-61
2022/11/24 10:04:03;;;;;;;1999.90;999.90;;;;;;;11.25;100.00;95040.19;4978338;28;20280;-61
2022/11/24 10:06:39;;;;;;;1999.90;999.90;;;;;;;11.67;100.00;95041.44;4978159;28;20201;-61
2022/11/24 10:09:26;;;;;;;1999.90;999.90;;;;;;;12.02;100.00;95043.53;4977919;28;20175;-61
2022/11/24 10:12:15;;;;;;;1999.90;999.90;;;;;;;12.28;100.00;95039.88;4977367;28;20190;-63
2022/11/24 10:15:13;;;;;;;1999.90;999.90;;;;;;;12.17;100.00;95042.06;4978199;28;20275;-64
2022/11/24 10:17:54;;;;;;;1999.90;999.90;;;;;;;11.73;100.00;95043.28;4975637;28;20191;-63
2022/11/24 10:20:50;;;;;;;1999.90;999.90;;;;;;;11.76;100.00;95058.09;4977417;28;20183;-63
2022/11/24 10:23:33;;;;;;;1999.90;999.90;;;;;;;11.29;100.00;95062.00;4978242;28;20178;-63
2022/11/24 10:25:59;;;;;;;1999.90;999.90;;;;;;;11.02;100.00;95058.53;4977373;28;20248;-63
2022/11/24 10:28:33;;;;;;;1999.90;999.90;;;;;;;10.73;100.00;95071.03;4977777;28;20204;-65
2022/11/24 10:31:22;;;;;;;1999.90;999.90;;;;;;;10.43;100.00;95076.53;4977950;28;20264;-66
2022/11/24 10:33:48;;;;;;;1999.90;999.90;;;;;;;9.99;100.00;95069.25;4978372;28;20177;-66
2022/11/24 10:36:25;;;;;;;1999.90;999.90;;;;;;;9.56;100.00;95068.13;4977472;28;20180;-66
2022/11/24 10:38:58;;;;;;;1999.90;999.90;;;;;;;9.29;100.00;95059.81;4978019;28;20216;-66
2022/11/24 10:41:34;;;;;;;1999.90;999.90;;;;;;;9.13;100.00;95062.28;4977262;28;20730;-66
2022/11/24 10:44:00;;;;;;;1999.90;999.90;;;;;;;9.11;100.00;95058.44;4978097;28;20203;-66
2022/11/24 10:46:27;;;;;;;1999.90;999.90;;;;;;;8.83;100.00;95048.53;4976753;28;20238;-68
2022/11/24 10:48:59;;;;;;;1999.90;999.90;;;;;;;8.82;100.00;95027.91;4977521;28;20172;-61
2022/11/24 10:51:30;;;;;;;1999.90;999.90;;;;;;;8.69;100.00;95012.47;4977539;28;20180;-66
2022/11/24 10:54:05;;;;;;;1999.90;999.90;;;;;;;8.43;100.00;94996.72;4977837;28;20179;-68
2022/11/24 10:56:41;;;;;;;1999.90;999.90;;;;;;;7.98;100.00;94982.16;4977221;28;20310;-69
2022/11/24 10:59:28;;;;;;;1999.90;999.90;;;;;;;7.82;100.00;94951.97;4977092;28;20193;-70